Meteo Giornale » Osservazioni meteo Stati Uniti (USA) » Victoria
ore: 19:51 - Osservazioni Meteo Victoria
Lat. 28° 51' N Lon. 96° 55' W Alt. 35 metri s.l.m.
31 °C
Sereno
Temp. 24 Ore
24 °C
38 °C
Est/Sud-Est
22.2 Km/h
Dew point 23 °C
Umidità 62 %
Visibilità 10 Km
Il sole sorge alle ore 07:05
Il sole tramonta alle ore 19:50
| Data e Ora | Cielo e Fenomeni | T °C | DP °C | Um. % | Pres. hPa | Vis. km | Vento km/h | |
|---|---|---|---|---|---|---|---|---|
| Oggi h: 19:51 | Sereno | 31 | 23 | 62 | 1013 | 10 | E/SE 22.2 | |
| Oggi h: 18:51 | Sereno | 34 | 21 | 46 | 1012 | 10 | E/SE 25.9 | |
| Oggi h: 17:51 | Sereno | 36 | 22 | 44 | 1012 | 10 | SE 24 | |
| Oggi h: 16:51 | Sereno | 37 | 21 | 39 | 1012 | 10 | S/SE 24 | |
| Oggi h: 15:51 | Sereno | 36 | 22 | 44 | 1014 | 10 | SE 31.5 | |
| Oggi h: 14:51 | Sereno | 36 | 22 | 44 | 1014 | 10 | SE 24 | |
| Oggi h: 13:51 | Sereno | 38 | 21 | 37 | 1015 | 10 | SE 11.1 | |
| Oggi h: 12:51 | Sereno | 38 | 21 | 37 | 1016 | 10 | N 0 | |
| Oggi h: 11:51 | Sereno | 36 | 22 | 44 | 1016 | 10 | N 7.4 | |
| Oggi h: 10:51 | Sereno | 34 | 22 | 49 | 1016 | 10 | S/SE 14.8 | |
| Oggi h: 09:51 | Sereno | 32 | 23 | 59 | 1016 | 10 | S/SE 9.3 | |
| Oggi h: 08:51 | Sereno | 29 | 25 | 79 | 1016 | 10 | N 0 | |
| Oggi h: 07:51 | Sereno | 26 | 24 | 88 | 1015 | 13 | N 0 | |
| Oggi h: 06:51 | Nuvoloso | 24 | 23 | 94 | 1015 | 13 | N 5.5 | |
| Oggi h: 05:51 | Poco Nuvoloso | 24 | 24 | 100 | 1014 | 14 | NE 7.4 | |
| Oggi h: 05:37 | Nuvoloso | 24 | 24 | 100 | 1015 | 14 | N 5.5 | |
| Oggi h: 05:10 | Molto Nuvoloso | 24 | 24 | 100 | 1015 | 13 | N/NE 7.4 | |
| Oggi h: 04:51 | Sereno | 24 | 24 | 100 | 1015 | 11 | N 5.5 | |
| Oggi h: 03:51 | Sereno | 24 | 23 | 94 | 1015 | 14 | N 5.5 | |
| Oggi h: 02:51 | Sereno | 26 | 24 | 88 | 1014 | 10 | S/SE 7.4 | |
| Oggi h: 01:51 | Poco Nuvoloso | 26 | 24 | 88 | 1015 | 10 | SE 11.1 | |
| Oggi h: 00:51 | Poco Nuvoloso | 26 | 24 | 88 | 1015 | 10 | SE 11.1 | |
| Ieri h: 23:51 | Sereno | 26 | 24 | 88 | 1015 | 10 | SE 7.4 | |
| Ieri h: 22:51 | Sereno | 27 | 24 | 83 | 1015 | 10 | S/SE 11.1 | |
| Ieri h: 21:51 | Sereno | 27 | 24 | 83 | 1014 | 10 | S/SE 11.1 | |
| Ieri h: 20:51 | Sereno | 28 | 24 | 78 | 1013 | 10 | SE 16.7 | |



